createdAt,value
2016-09-04T00:00:39.501Z,0
2016-09-04T00:01:39.504Z,0
2016-09-04T00:02:39.503Z,0
2016-09-04T00:03:39.507Z,0
2016-09-04T00:04:39.515Z,0
2016-09-04T00:05:39.504Z,0
2016-09-04T00:06:40.198Z,0
2016-09-04T00:07:39.495Z,0
2016-09-04T00:08:39.480Z,0
2016-09-04T00:09:39.507Z,0
2016-09-04T00:10:39.484Z,0
2016-09-04T00:11:39.487Z,0
2016-09-04T00:12:39.485Z,0
2016-09-04T00:13:39.488Z,0
2016-09-04T00:14:39.470Z,0
2016-09-04T00:15:40.164Z,0
2016-09-04T00:16:39.460Z,0
2016-09-04T00:17:39.483Z,0
2016-09-04T00:18:39.464Z,0
2016-09-04T00:19:39.460Z,0
2016-09-04T00:20:39.463Z,0
2016-09-04T00:21:39.454Z,0
2016-09-04T00:22:39.450Z,0
2016-09-04T00:23:39.455Z,0
2016-09-04T00:24:39.441Z,0
2016-09-04T00:25:39.469Z,0
2016-09-04T00:26:39.440Z,0
2016-09-04T00:27:39.436Z,0
2016-09-04T00:28:39.460Z,0
2016-09-04T00:29:39.449Z,0
2016-09-04T00:30:39.425Z,0
2016-09-04T00:31:39.425Z,0
2016-09-04T00:32:39.424Z,0
2016-09-04T00:33:40.946Z,0
2016-09-04T00:34:40.454Z,0
2016-09-04T00:35:41.635Z,0
2016-09-04T00:36:41.113Z,0
2016-09-04T00:37:39.569Z,0
2016-09-04T00:38:40.749Z,0
2016-09-04T00:39:39.399Z,0
2016-09-04T00:40:39.431Z,0
2016-09-04T00:41:39.436Z,0
2016-09-04T00:42:40.929Z,0
2016-09-04T00:44:42.095Z,0
2016-09-04T00:45:39.843Z,0
2016-09-04T00:46:39.439Z,0
2016-09-04T00:47:39.830Z,0
2016-09-04T00:48:40.081Z,0
2016-09-04T00:49:39.692Z,0
2016-09-04T00:50:39.381Z,0
2016-09-04T00:51:39.370Z,0
2016-09-04T00:52:39.384Z,0
2016-09-04T00:53:39.354Z,0
2016-09-04T00:54:39.374Z,0
2016-09-04T00:55:39.351Z,0
2016-09-04T00:56:40.049Z,0
2016-09-04T00:57:39.352Z,0
2016-09-04T00:58:39.349Z,0
2016-09-04T01:00:39.532Z,0
2016-09-04T01:01:39.469Z,0
2016-09-04T01:02:39.776Z,0
2016-09-04T01:03:40.148Z,0
2016-09-04T01:04:39.365Z,0
2016-09-04T01:05:39.996Z,0
2016-09-04T01:06:39.318Z,0
2016-09-04T01:07:39.322Z,0
2016-09-04T01:08:39.300Z,0
2016-09-04T01:09:39.631Z,0
2016-09-04T01:10:39.560Z,0
2016-09-04T01:11:39.298Z,0
2016-09-04T01:12:39.301Z,0
2016-09-04T01:13:40.482Z,0
2016-09-04T01:14:39.306Z,0
2016-09-04T01:15:39.283Z,0
2016-09-04T01:16:39.278Z,0
2016-09-04T01:17:39.300Z,0
2016-09-04T01:18:39.270Z,0
2016-09-04T01:19:39.274Z,0
2016-09-04T01:20:39.264Z,0
2016-09-04T01:21:39.270Z,0
2016-09-04T01:22:39.254Z,0
2016-09-04T01:23:39.264Z,0
2016-09-04T01:24:39.256Z,0
2016-09-04T01:25:39.243Z,0
2016-09-04T01:26:39.243Z,0
2016-09-04T01:27:39.268Z,0
2016-09-04T01:28:39.247Z,0
2016-09-04T01:29:39.242Z,0
2016-09-04T01:30:39.241Z,0
2016-09-04T01:31:39.235Z,0
2016-09-04T01:32:39.246Z,0
2016-09-04T01:33:39.224Z,0
2016-09-04T01:34:39.243Z,0
2016-09-04T01:35:39.218Z,0
2016-09-04T01:36:39.226Z,0
2016-09-04T01:37:39.211Z,0
2016-09-04T01:38:39.225Z,0
2016-09-04T01:39:39.203Z,0
2016-09-04T01:40:39.203Z,0
2016-09-04T01:41:39.207Z,0
2016-09-04T01:42:39.208Z,0
2016-09-04T01:43:39.202Z,0
2016-09-04T01:44:39.189Z,0
2016-09-04T01:45:39.188Z,0
2016-09-04T01:46:39.279Z,0
2016-09-04T01:47:39.189Z,0
2016-09-04T01:48:39.194Z,0
2016-09-04T01:49:39.183Z,0
2016-09-04T01:50:39.183Z,0
2016-09-04T01:52:40.687Z,0
2016-09-04T01:53:40.444Z,0
2016-09-04T01:54:40.271Z,0
2016-09-04T01:55:39.185Z,0
2016-09-04T01:56:40.443Z,0
2016-09-04T01:57:39.150Z,0
2016-09-04T01:58:39.152Z,0
2016-09-04T01:59:39.153Z,0
2016-09-04T02:00:39.150Z,0
2016-09-04T02:01:42.548Z,0
2016-09-04T02:02:40.875Z,0
2016-09-04T02:03:41.055Z,0
2016-09-04T02:04:40.844Z,0
2016-09-04T02:05:39.473Z,0
2016-09-04T02:06:39.963Z,0
2016-09-04T02:07:39.121Z,0
2016-09-04T02:08:39.262Z,0
2016-09-04T02:09:39.125Z,0
2016-09-04T02:10:39.128Z,0
2016-09-04T02:11:39.127Z,0
2016-09-04T02:12:39.109Z,0
2016-09-04T02:13:39.115Z,0
2016-09-04T02:14:39.100Z,0
2016-09-04T02:15:39.136Z,0
2016-09-04T02:16:39.113Z,0
2016-09-04T02:17:39.108Z,0
2016-09-04T02:18:40.107Z,0
2016-09-04T02:19:39.563Z,0
2016-09-04T02:21:39.183Z,0
2016-09-04T02:22:39.090Z,0
2016-09-04T02:23:39.099Z,0
2016-09-04T02:24:39.766Z,0
2016-09-04T02:25:39.060Z,0
2016-09-04T02:26:39.081Z,0
2016-09-04T02:27:39.112Z,0
2016-09-04T02:28:40.025Z,0
2016-09-04T02:29:39.569Z,0
2016-09-04T02:30:39.620Z,0
2016-09-04T02:31:39.160Z,0
2016-09-04T02:32:39.046Z,0
2016-09-04T02:33:39.066Z,0
2016-09-04T02:34:39.051Z,0
2016-09-04T02:35:39.061Z,0
2016-09-04T02:36:39.038Z,0
2016-09-04T02:37:39.037Z,0
2016-09-04T02:38:39.053Z,0
2016-09-04T02:39:39.027Z,0
2016-09-04T02:40:39.050Z,0
2016-09-04T02:41:39.034Z,0
2016-09-04T02:42:39.033Z,0
2016-09-04T02:43:39.024Z,0
2016-09-04T02:44:39.030Z,0
2016-09-04T02:45:39.020Z,0
2016-09-04T02:46:39.074Z,0
2016-09-04T02:47:39.016Z,0
2016-09-04T02:48:39.027Z,0
2016-09-04T02:49:39.020Z,0
2016-09-04T02:50:39.016Z,0
2016-09-04T02:51:39.006Z,0
2016-09-04T02:52:39.025Z,0
2016-09-04T02:53:39.006Z,0
2016-09-04T02:54:39.006Z,0
2016-09-04T02:55:39.012Z,0
2016-09-04T02:56:39.007Z,0
2016-09-04T02:57:38.985Z,0
2016-09-04T02:58:38.989Z,0
2016-09-04T02:59:38.983Z,0
2016-09-04T03:00:38.991Z,0
2016-09-04T03:01:38.979Z,0
2016-09-04T03:02:38.990Z,0
2016-09-04T03:03:38.985Z,0
2016-09-04T03:04:38.990Z,0
2016-09-04T03:05:38.971Z,0
2016-09-04T03:06:38.975Z,0
2016-09-04T03:07:38.971Z,0
2016-09-04T03:08:38.975Z,0
2016-09-04T03:09:38.953Z,0
2016-09-04T03:11:41.517Z,0
2016-09-04T03:12:39.548Z,0
2016-09-04T03:13:38.950Z,0
2016-09-04T03:14:40.246Z,0
2016-09-04T03:15:38.957Z,0
2016-09-04T03:16:38.965Z,0
2016-09-04T03:17:38.934Z,0
2016-09-04T03:18:38.940Z,0
2016-09-04T03:19:41.138Z,0
2016-09-04T03:20:39.554Z,0
2016-09-04T03:21:39.881Z,0
2016-09-04T03:22:40.013Z,0
2016-09-04T03:23:38.928Z,0
2016-09-04T03:24:39.647Z,0
2016-09-04T03:25:38.914Z,0
2016-09-04T03:26:38.918Z,0
2016-09-04T03:27:38.912Z,0
2016-09-04T03:28:38.934Z,0
2016-09-04T03:29:38.907Z,0
2016-09-04T03:30:38.897Z,0
2016-09-04T03:31:38.904Z,0
2016-09-04T03:32:38.905Z,0
2016-09-04T03:33:38.904Z,0
2016-09-04T03:34:38.893Z,0
2016-09-04T03:35:38.915Z,0
2016-09-04T03:36:39.604Z,0
2016-09-04T03:37:39.899Z,0
2016-09-04T03:38:54.442Z,0
2016-09-04T03:39:38.899Z,0
2016-09-04T03:40:39.134Z,0
2016-09-04T03:41:38.895Z,0
2016-09-04T03:42:38.877Z,0
2016-09-04T03:43:38.865Z,0
2016-09-04T03:44:38.873Z,0
2016-09-04T03:45:39.676Z,0
2016-09-04T03:46:55.338Z,0
2016-09-04T03:48:38.874Z,0
2016-09-04T03:49:38.879Z,0
2016-09-04T03:50:39.349Z,0
2016-09-04T03:51:38.851Z,0
2016-09-04T03:52:38.845Z,0
2016-09-04T03:53:38.857Z,0
2016-09-04T03:54:38.834Z,0
2016-09-04T03:55:38.836Z,0
2016-09-04T03:56:38.833Z,4
2016-09-04T03:57:38.860Z,4
2016-09-04T03:58:38.836Z,4
2016-09-04T03:59:38.830Z,8
2016-09-04T04:00:38.833Z,8
2016-09-04T04:01:38.829Z,8
2016-09-04T04:02:38.844Z,8
2016-09-04T04:03:38.825Z,8
2016-09-04T04:04:38.833Z,12
2016-09-04T04:05:38.810Z,16
2016-09-04T04:06:38.839Z,16
2016-09-04T04:07:38.814Z,16
2016-09-04T04:08:38.808Z,16
2016-09-04T04:09:38.800Z,24
2016-09-04T04:10:38.822Z,28
2016-09-04T04:11:38.800Z,32
2016-09-04T04:12:38.808Z,36
2016-09-04T04:13:38.800Z,44
2016-09-04T04:14:38.825Z,52
2016-09-04T04:15:38.800Z,60
2016-09-04T04:16:38.791Z,76
2016-09-04T04:17:38.782Z,80
2016-09-04T04:18:38.798Z,100
2016-09-04T04:19:38.771Z,112
2016-09-04T04:20:38.806Z,124
2016-09-04T04:21:38.766Z,132
2016-09-04T04:22:39.497Z,144
2016-09-04T04:23:39.462Z,152
2016-09-04T04:24:38.796Z,164
2016-09-04T04:25:38.755Z,180
2016-09-04T04:26:38.757Z,200
2016-09-04T04:27:38.779Z,212
2016-09-04T04:28:41.467Z,220
2016-09-04T04:29:39.982Z,236
2016-09-04T04:30:40.430Z,264
2016-09-04T04:31:40.481Z,300
2016-09-04T04:32:39.387Z,348
2016-09-04T04:33:38.754Z,404
2016-09-04T04:34:38.746Z,444
2016-09-04T04:35:38.741Z,460
2016-09-04T04:36:38.727Z,472
2016-09-04T04:37:39.180Z,512
2016-09-04T04:38:41.412Z,576
2016-09-04T04:39:38.723Z,668
2016-09-04T04:40:38.996Z,760
2016-09-04T04:41:38.712Z,856
2016-09-04T04:42:39.203Z,964
2016-09-04T04:43:38.728Z,1088
2016-09-04T04:44:38.708Z,1200
2016-09-04T04:45:38.731Z,1280
2016-09-04T04:46:38.706Z,1340
2016-09-04T04:47:38.756Z,1392
2016-09-04T04:48:38.704Z,1424
2016-09-04T04:49:38.726Z,1456
2016-09-04T04:50:38.692Z,1480
2016-09-04T04:51:38.722Z,1516
2016-09-04T04:52:38.696Z,1572
2016-09-04T04:53:38.697Z,1628
2016-09-04T04:54:38.885Z,1672
2016-09-04T04:55:38.688Z,1680
2016-09-04T04:56:39.033Z,1688
2016-09-04T04:57:39.337Z,1716
2016-09-04T04:58:39.081Z,1780
2016-09-04T04:59:38.694Z,1860
2016-09-04T05:00:38.675Z,1960
2016-09-04T05:01:38.690Z,2044
2016-09-04T05:02:38.665Z,2068
2016-09-04T05:03:39.150Z,2056
2016-09-04T05:04:38.665Z,2020
2016-09-04T05:05:39.525Z,1952
2016-09-04T05:06:39.070Z,1932
2016-09-04T05:08:38.677Z,1952
2016-09-04T05:09:39.351Z,1996
2016-09-04T05:10:38.658Z,2036
2016-09-04T05:11:38.657Z,1996
2016-09-04T05:12:38.649Z,1924
2016-09-04T05:13:38.662Z,1872
2016-09-04T05:14:38.637Z,1880
2016-09-04T05:15:38.652Z,1880
2016-09-04T05:16:38.632Z,1892
2016-09-04T05:17:38.631Z,1940
2016-09-04T05:18:38.635Z,2036
2016-09-04T05:19:38.640Z,2100
2016-09-04T05:20:38.644Z,2048
2016-09-04T05:21:38.651Z,1976
2016-09-04T05:22:38.642Z,2016
2016-09-04T05:23:38.628Z,2196
2016-09-04T05:24:38.625Z,2464
2016-09-04T05:25:38.619Z,2744
2016-09-04T05:26:38.642Z,3000
2016-09-04T05:27:38.605Z,3228
2016-09-04T05:28:38.638Z,3396
2016-09-04T05:29:38.622Z,3596
2016-09-04T05:30:38.609Z,3876
2016-09-04T05:31:38.597Z,4200
2016-09-04T05:32:38.604Z,4408
2016-09-04T05:33:38.606Z,4484
2016-09-04T05:34:38.602Z,4492
2016-09-04T05:35:38.631Z,4476
2016-09-04T05:36:38.590Z,4436
2016-09-04T05:37:38.590Z,4428
2016-09-04T05:38:38.606Z,4444
2016-09-04T05:39:38.583Z,4524
2016-09-04T05:40:38.603Z,4660
2016-09-04T05:41:38.591Z,4856
2016-09-04T05:42:38.615Z,5052
2016-09-04T05:43:38.586Z,5244
2016-09-04T05:44:38.607Z,5412
2016-09-04T05:45:38.581Z,5548
2016-09-04T05:46:39.982Z,5608
2016-09-04T05:47:38.723Z,5640
2016-09-04T05:48:39.433Z,5720
2016-09-04T05:49:39.840Z,5800
2016-09-04T05:50:39.025Z,5896
2016-09-04T05:51:38.588Z,6036
2016-09-04T05:52:38.562Z,6188
2016-09-04T05:53:38.576Z,6404
2016-09-04T05:54:38.573Z,6604
2016-09-04T05:56:40.365Z,7112
2016-09-04T05:57:38.578Z,7352
2016-09-04T05:58:38.572Z,7664
2016-09-04T05:59:40.070Z,8120
2016-09-04T06:00:39.163Z,8584
2016-09-04T06:01:38.545Z,9140
2016-09-04T06:02:38.555Z,12040
2016-09-04T06:03:38.551Z,11276
2016-09-04T06:04:38.553Z,11732
2016-09-04T06:05:38.555Z,10140
2016-09-04T06:06:38.560Z,10380
2016-09-04T06:07:38.581Z,11152
2016-09-04T06:08:38.547Z,11264
2016-09-04T06:09:38.546Z,12672
2016-09-04T06:10:38.535Z,15552
2016-09-04T06:11:38.545Z,16640
2016-09-04T06:13:39.501Z,18656
2016-09-04T06:14:39.933Z,17568
2016-09-04T06:15:38.952Z,17088
2016-09-04T06:16:40.036Z,17888
2016-09-04T06:17:38.983Z,16128
2016-09-04T06:18:38.561Z,12700
2016-09-04T06:19:38.538Z,13192
2016-09-04T06:20:38.530Z,13360
2016-09-04T06:21:39.895Z,13408
2016-09-04T06:22:39.389Z,14744
2016-09-04T06:23:38.550Z,16416
2016-09-04T06:24:38.793Z,19776
2016-09-04T06:25:38.594Z,18528
2016-09-04T06:26:38.557Z,18016
2016-09-04T06:27:38.927Z,19776
2016-09-04T06:28:38.557Z,17792
2016-09-04T06:29:38.553Z,20992
2016-09-04T06:30:38.572Z,21312
2016-09-04T06:31:38.586Z,21248
2016-09-04T06:32:38.580Z,15712
2016-09-04T06:33:38.571Z,19936
2016-09-04T06:34:38.573Z,19680
2016-09-04T06:35:38.592Z,18176
2016-09-04T06:36:38.582Z,16960
2016-09-04T06:37:38.622Z,13556
2016-09-04T06:38:38.620Z,11404
2016-09-04T06:39:38.612Z,11024
2016-09-04T06:40:38.606Z,10884
2016-09-04T06:41:38.633Z,10712
2016-09-04T06:42:38.618Z,10636
2016-09-04T06:43:38.647Z,10788
2016-09-04T06:44:38.623Z,12180
2016-09-04T06:45:39.349Z,12764
2016-09-04T06:46:38.631Z,12328
2016-09-04T06:47:38.732Z,15324
2016-09-04T06:48:38.654Z,13204
2016-09-04T06:49:38.690Z,13156
2016-09-04T06:50:38.661Z,13948
2016-09-04T06:51:38.674Z,15068
2016-09-04T06:52:38.664Z,15552
2016-09-04T06:53:38.692Z,15756
2016-09-04T06:54:38.700Z,16928
2016-09-04T06:55:38.680Z,19360
2016-09-04T06:56:38.693Z,20832
2016-09-04T06:57:38.703Z,20800
2016-09-04T06:58:38.700Z,22624
2016-09-04T06:59:38.717Z,24384
2016-09-04T07:00:38.707Z,25088
2016-09-04T07:01:38.746Z,28448
2016-09-04T07:02:38.747Z,26240
2016-09-04T07:03:38.743Z,21248
2016-09-04T07:04:42.085Z,17024
2016-09-04T07:05:40.889Z,16928
2016-09-04T07:06:38.760Z,17984
2016-09-04T07:07:39.268Z,16352
2016-09-04T07:08:38.790Z,16416
2016-09-04T07:09:38.772Z,16928
2016-09-04T07:10:38.803Z,17312
2016-09-04T07:11:38.791Z,17376
2016-09-04T07:12:38.814Z,17280
2016-09-04T07:13:42.207Z,17824
2016-09-04T07:14:41.276Z,17088
2016-09-04T07:15:40.303Z,17376
2016-09-04T07:16:40.145Z,18720
2016-09-04T07:17:39.961Z,20736
2016-09-04T07:18:39.300Z,23008
2016-09-04T07:19:38.861Z,22944
2016-09-04T07:20:38.855Z,22816
2016-09-04T07:21:38.881Z,22144
2016-09-04T07:22:38.887Z,21984
2016-09-04T07:23:38.888Z,20896
2016-09-04T07:24:38.900Z,18688
2016-09-04T07:25:38.893Z,18720
2016-09-04T07:26:38.924Z,19744
2016-09-04T07:27:38.904Z,19808
2016-09-04T07:28:38.923Z,17632
2016-09-04T07:29:38.923Z,17152
2016-09-04T07:30:39.544Z,17056
2016-09-04T07:31:39.304Z,18368
2016-09-04T07:32:54.158Z,20160
2016-09-04T07:33:39.486Z,21600
2016-09-04T07:34:39.374Z,22016
2016-09-04T07:35:38.976Z,24064
2016-09-04T07:36:39.468Z,19680
2016-09-04T07:37:38.997Z,20352
2016-09-04T07:38:38.976Z,20160
2016-09-04T07:39:39.646Z,20448
2016-09-04T07:40:39.451Z,20864
2016-09-04T07:41:39.607Z,21184
2016-09-04T07:42:39.484Z,22048
2016-09-04T07:43:39.219Z,20224
2016-09-04T07:44:39.379Z,19104
2016-09-04T07:45:39.042Z,17472
2016-09-04T07:46:39.104Z,16256
2016-09-04T07:47:39.090Z,14816
2016-09-04T07:48:39.053Z,13724
2016-09-04T07:49:39.064Z,13112
2016-09-04T07:50:39.060Z,12856
2016-09-04T07:51:39.110Z,13016
2016-09-04T07:52:39.082Z,13392
2016-09-04T07:53:39.124Z,13748
2016-09-04T07:54:39.085Z,14004
2016-09-04T07:55:39.124Z,14004
2016-09-04T07:56:39.103Z,14012
2016-09-04T07:57:39.128Z,14124
2016-09-04T07:58:39.131Z,14228
2016-09-04T07:59:39.129Z,14344
2016-09-04T08:00:39.150Z,14432
2016-09-04T08:01:39.141Z,14540
2016-09-04T08:02:39.149Z,14624
2016-09-04T08:03:39.166Z,14628
2016-09-04T08:04:39.172Z,14608
2016-09-04T08:05:39.165Z,14708
2016-09-04T08:06:39.186Z,14824
2016-09-04T08:07:39.166Z,14732
2016-09-04T08:08:39.185Z,14728
2016-09-04T08:09:39.198Z,14560
2016-09-04T08:10:39.193Z,14428
2016-09-04T08:11:39.215Z,14312
2016-09-04T08:12:39.196Z,14148
2016-09-04T08:13:39.930Z,14056
2016-09-04T08:14:39.211Z,14152
2016-09-04T08:15:39.222Z,14252
2016-09-04T08:16:39.230Z,14412
2016-09-04T08:17:39.240Z,14432
2016-09-04T08:18:39.233Z,13940
2016-09-04T08:19:39.238Z,13368
2016-09-04T08:20:39.251Z,13172
2016-09-04T08:21:39.250Z,13148
2016-09-04T08:22:41.040Z,13180
2016-09-04T08:23:42.258Z,13268
2016-09-04T08:24:41.333Z,13480
2016-09-04T08:25:41.182Z,13612
2016-09-04T08:26:39.293Z,13980
2016-09-04T08:27:40.292Z,14808
2016-09-04T08:28:39.305Z,16140
2016-09-04T08:29:39.309Z,17696
2016-09-04T08:30:39.311Z,18944
2016-09-04T08:31:41.022Z,20000
2016-09-04T08:32:40.526Z,20896
2016-09-04T08:33:42.010Z,21568
2016-09-04T08:34:39.972Z,22080
2016-09-04T08:35:39.982Z,22496
2016-09-04T08:36:39.552Z,22912
2016-09-04T08:37:39.339Z,23328
2016-09-04T08:38:39.366Z,23360
2016-09-04T08:39:39.345Z,22976
2016-09-04T08:40:39.342Z,22560
2016-09-04T08:41:39.350Z,22208
2016-09-04T08:42:39.363Z,21824
2016-09-04T08:43:39.372Z,21536
2016-09-04T08:44:39.370Z,21216
2016-09-04T08:45:39.367Z,20768
2016-09-04T08:46:39.381Z,20288
2016-09-04T08:47:39.506Z,19776
2016-09-04T08:48:39.383Z,19360
2016-09-04T08:49:39.532Z,18816
2016-09-04T08:50:39.887Z,18304
2016-09-04T08:51:39.428Z,17920
2016-09-04T08:52:39.408Z,17600
2016-09-04T08:53:39.436Z,17824
2016-09-04T08:54:39.774Z,17888
2016-09-04T08:55:39.440Z,17952
2016-09-04T08:56:39.442Z,17984
2016-09-04T08:57:39.755Z,18368
2016-09-04T08:58:39.842Z,19040
2016-09-04T08:59:54.652Z,18304
2016-09-04T09:00:54.376Z,18336
2016-09-04T09:01:40.695Z,18368
2016-09-04T09:02:40.550Z,18432
2016-09-04T09:03:39.496Z,18176
2016-09-04T09:04:39.479Z,17248
2016-09-04T09:05:39.504Z,16640
2016-09-04T09:06:39.493Z,16736
2016-09-04T09:07:39.528Z,16608
2016-09-04T09:08:39.523Z,16352
2016-09-04T09:09:39.520Z,14296
2016-09-04T09:10:40.214Z,12876
2016-09-04T09:11:39.523Z,14392
2016-09-04T09:12:39.556Z,13372
2016-09-04T09:13:39.544Z,13228
2016-09-04T09:14:39.551Z,15468
2016-09-04T09:15:39.549Z,14896
2016-09-04T09:16:39.544Z,12928
2016-09-04T09:17:39.560Z,12640
2016-09-04T09:18:39.579Z,12708
2016-09-04T09:19:39.565Z,13452
2016-09-04T09:20:39.602Z,13512
2016-09-04T09:21:39.573Z,13888
2016-09-04T09:22:39.592Z,13412
2016-09-04T09:23:39.587Z,13768
2016-09-04T09:24:39.615Z,13912
2016-09-04T09:25:39.612Z,14776
2016-09-04T09:26:39.617Z,14488
2016-09-04T09:27:39.614Z,14288
2016-09-04T09:28:39.614Z,14708
2016-09-04T09:29:39.639Z,15156
2016-09-04T09:30:39.646Z,15292
2016-09-04T09:31:39.631Z,14776
2016-09-04T09:32:39.664Z,14620
2016-09-04T09:33:39.635Z,15256
2016-09-04T09:34:39.659Z,16020
2016-09-04T09:35:39.653Z,16512
2016-09-04T09:36:39.662Z,16640
2016-09-04T09:37:39.685Z,16384
2016-09-04T09:38:39.684Z,15816
2016-09-04T09:39:39.669Z,15060
2016-09-04T09:40:41.575Z,14240
2016-09-04T09:41:41.460Z,14176
2016-09-04T09:42:41.038Z,14760
2016-09-04T09:43:41.293Z,15432
2016-09-04T09:44:41.306Z,15760
2016-09-04T09:45:40.917Z,15252
2016-09-04T09:46:39.705Z,14536
2016-09-04T09:47:39.721Z,14044
2016-09-04T09:48:39.710Z,13392
2016-09-04T09:50:40.237Z,14420
2016-09-04T09:51:42.112Z,14828
2016-09-04T09:52:40.454Z,15748
2016-09-04T09:53:40.735Z,17152
2016-09-04T09:54:40.600Z,17504
2016-09-04T09:55:39.765Z,17856
2016-09-04T09:56:39.745Z,18848
2016-09-04T09:57:39.756Z,19232
2016-09-04T09:58:39.757Z,19584
2016-09-04T09:59:39.788Z,19936
2016-09-04T10:00:39.761Z,19328
2016-09-04T10:01:39.793Z,17728
2016-09-04T10:02:39.773Z,14736
2016-09-04T10:03:39.780Z,11824
2016-09-04T10:04:39.796Z,9532
2016-09-04T10:05:39.784Z,9368
2016-09-04T10:06:40.297Z,9684
2016-09-04T10:07:40.436Z,9388
2016-09-04T10:08:40.151Z,8592
2016-09-04T10:09:39.832Z,9208
2016-09-04T10:10:40.508Z,10716
2016-09-04T10:11:39.834Z,11976
2016-09-04T10:12:39.818Z,12096
2016-09-04T10:13:40.558Z,11900
2016-09-04T10:14:39.841Z,12480
2016-09-04T10:15:55.500Z,12104
2016-09-04T10:16:39.861Z,10456
2016-09-04T10:17:41.298Z,9292
2016-09-04T10:18:40.518Z,9024
2016-09-04T10:19:39.872Z,8188
2016-09-04T10:20:39.857Z,8068
2016-09-04T10:21:40.704Z,9568
2016-09-04T10:22:40.562Z,10496
2016-09-04T10:23:39.885Z,9560
2016-09-04T10:24:39.872Z,8612
2016-09-04T10:25:39.894Z,8908
2016-09-04T10:26:39.879Z,10312
2016-09-04T10:27:39.904Z,11124
2016-09-04T10:28:39.888Z,10768
2016-09-04T10:29:39.896Z,11016
2016-09-04T10:30:39.888Z,11388
2016-09-04T10:31:39.911Z,11192
2016-09-04T10:32:39.909Z,10732
2016-09-04T10:33:40.611Z,10172
2016-09-04T10:34:39.897Z,10188
2016-09-04T10:35:39.908Z,11452
2016-09-04T10:36:39.932Z,12152
2016-09-04T10:37:39.921Z,11220
2016-09-04T10:38:39.929Z,10684
2016-09-04T10:39:39.917Z,10912
2016-09-04T10:40:39.931Z,11752
2016-09-04T10:41:39.915Z,12252
2016-09-04T10:42:39.920Z,13256
2016-09-04T10:43:39.939Z,13892
2016-09-04T10:44:40.634Z,13852
2016-09-04T10:45:39.947Z,13740
2016-09-04T10:46:39.940Z,13092
2016-09-04T10:47:40.049Z,12984
2016-09-04T10:48:39.945Z,12108
2016-09-04T10:49:39.975Z,11652
2016-09-04T10:50:39.934Z,11220
2016-09-04T10:51:39.943Z,12340
2016-09-04T10:52:39.959Z,12572
2016-09-04T10:53:39.960Z,12840
2016-09-04T10:54:39.962Z,12056
2016-09-04T10:55:39.948Z,11908
2016-09-04T10:56:39.988Z,11752
2016-09-04T10:57:39.958Z,11220
2016-09-04T10:58:41.282Z,10460
2016-09-04T10:59:41.282Z,9628
2016-09-04T11:00:41.052Z,8740
2016-09-04T11:01:41.608Z,7916
2016-09-04T11:02:39.987Z,7888
2016-09-04T11:03:39.969Z,8256
2016-09-04T11:04:39.969Z,8168
2016-09-04T11:05:39.996Z,8160
2016-09-04T11:06:39.982Z,8512
2016-09-04T11:07:55.965Z,8360
2016-09-04T11:08:40.003Z,8220
2016-09-04T11:09:42.292Z,7844
2016-09-04T11:10:40.982Z,7852
2016-09-04T11:11:41.550Z,8288
2016-09-04T11:12:40.707Z,9256
2016-09-04T11:13:39.993Z,10656
2016-09-04T11:14:39.990Z,12032
2016-09-04T11:15:40.003Z,13136
2016-09-04T11:16:39.997Z,13700
2016-09-04T11:17:40.010Z,14172
2016-09-04T11:18:39.997Z,15120
2016-09-04T11:19:39.985Z,15556
2016-09-04T11:20:39.996Z,15284
2016-09-04T11:21:40.007Z,14616
2016-09-04T11:22:40.013Z,13876
2016-09-04T11:23:40.033Z,13424
2016-09-04T11:24:40.996Z,13368
2016-09-04T11:25:40.964Z,13800
2016-09-04T11:26:40.547Z,14432
2016-09-04T11:27:39.999Z,15104
2016-09-04T11:28:40.368Z,15764
2016-09-04T11:29:40.657Z,16608
2016-09-04T11:30:40.041Z,17536
2016-09-04T11:31:40.015Z,18048
2016-09-04T11:32:40.019Z,17856
2016-09-04T11:33:40.304Z,17440
2016-09-04T11:34:41.114Z,17280
2016-09-04T11:35:54.978Z,17344
2016-09-04T11:36:55.144Z,17600
2016-09-04T11:37:40.074Z,17888
2016-09-04T11:38:40.017Z,18208
2016-09-04T11:39:40.041Z,18304
2016-09-04T11:40:40.043Z,18176
2016-09-04T11:41:40.034Z,17728
2016-09-04T11:42:40.028Z,17152
2016-09-04T11:43:40.029Z,16576
2016-09-04T11:44:40.052Z,16104
2016-09-04T11:45:40.041Z,15920
2016-09-04T11:46:40.046Z,15384
2016-09-04T11:47:40.083Z,14760
2016-09-04T11:48:40.046Z,14696
2016-09-04T11:49:40.071Z,14716
2016-09-04T11:50:40.061Z,14964
2016-09-04T11:51:40.081Z,15956
2016-09-04T11:52:40.053Z,17664
2016-09-04T11:53:40.054Z,19104
2016-09-04T11:54:40.054Z,20736
2016-09-04T11:55:40.059Z,22112
2016-09-04T11:56:40.091Z,22432
2016-09-04T11:57:40.074Z,20992
2016-09-04T11:58:40.087Z,19328
2016-09-04T11:59:40.076Z,18112
2016-09-04T12:00:40.083Z,17536
2016-09-04T12:01:40.102Z,17696
2016-09-04T12:02:40.087Z,17984
2016-09-04T12:03:40.112Z,17984
2016-09-04T12:04:40.088Z,17664
2016-09-04T12:05:40.091Z,17024
2016-09-04T12:06:40.106Z,16008
2016-09-04T12:07:40.090Z,15744
2016-09-04T12:08:40.105Z,15256
2016-09-04T12:09:40.116Z,14840
2016-09-04T12:10:40.106Z,13512
2016-09-04T12:11:40.148Z,9696
2016-09-04T12:12:40.121Z,7860
2016-09-04T12:13:40.116Z,11176
2016-09-04T12:14:40.123Z,11420
2016-09-04T12:15:40.127Z,12092
2016-09-04T12:16:40.945Z,12340
2016-09-04T12:17:41.400Z,14136
2016-09-04T12:18:41.661Z,14412
2016-09-04T12:19:40.405Z,14076
2016-09-04T12:20:40.988Z,13864
2016-09-04T12:21:40.692Z,13812
2016-09-04T12:22:40.148Z,14376
2016-09-04T12:23:40.164Z,14500
2016-09-04T12:24:40.182Z,14392
2016-09-04T12:26:40.300Z,14092
2016-09-04T12:27:42.832Z,13848
2016-09-04T12:28:41.795Z,13412
2016-09-04T12:29:40.480Z,13012
2016-09-04T12:30:40.311Z,12588
2016-09-04T12:31:40.173Z,12348
2016-09-04T12:32:40.188Z,12208
2016-09-04T12:33:40.193Z,12200
2016-09-04T12:34:40.213Z,12332
2016-09-04T12:35:40.214Z,12264
2016-09-04T12:36:40.215Z,12204
2016-09-04T12:37:40.186Z,12156
2016-09-04T12:38:40.191Z,12192
2016-09-04T12:39:40.240Z,12048
2016-09-04T12:40:40.196Z,12436
2016-09-04T12:41:40.214Z,12680
2016-09-04T12:42:55.273Z,12008
2016-09-04T12:43:41.430Z,12428
2016-09-04T12:44:40.604Z,11872
2016-09-04T12:45:40.205Z,11104
2016-09-04T12:46:41.008Z,11004
2016-09-04T12:47:40.321Z,10684
2016-09-04T12:48:40.252Z,10616
2016-09-04T12:49:40.234Z,10812
2016-09-04T12:50:40.233Z,11504
2016-09-04T12:52:10.063Z,11520
2016-09-04T12:52:40.687Z,11896
2016-09-04T12:53:56.617Z,12580
2016-09-04T12:54:41.475Z,12604
2016-09-04T12:56:40.856Z,13128
2016-09-04T12:57:40.958Z,13376
2016-09-04T12:58:40.267Z,14604
2016-09-04T12:59:40.242Z,15624
2016-09-04T13:00:40.260Z,16320
2016-09-04T13:01:40.256Z,16104
2016-09-04T13:02:40.264Z,16448
2016-09-04T13:03:40.246Z,16200
2016-09-04T13:04:40.280Z,16352
2016-09-04T13:05:40.262Z,16640
2016-09-04T13:06:40.265Z,17856
2016-09-04T13:07:40.261Z,19104
2016-09-04T13:08:40.259Z,17280
2016-09-04T13:09:40.256Z,16832
2016-09-04T13:10:40.286Z,19296
2016-09-04T13:11:40.283Z,19712
2016-09-04T13:12:40.268Z,20064
2016-09-04T13:13:40.269Z,20224
2016-09-04T13:14:40.275Z,17760
2016-09-04T13:15:40.304Z,18752
2016-09-04T13:16:40.272Z,18752
2016-09-04T13:17:40.294Z,17920
2016-09-04T13:18:40.292Z,17088
2016-09-04T13:19:40.284Z,16160
2016-09-04T13:20:40.312Z,16544
2016-09-04T13:21:40.301Z,16768
2016-09-04T13:22:40.316Z,16800
2016-09-04T13:23:40.290Z,17152
2016-09-04T13:24:40.303Z,18080
2016-09-04T13:25:40.318Z,18912
2016-09-04T13:26:40.334Z,19776
2016-09-04T13:27:40.343Z,20032
2016-09-04T13:28:40.314Z,20640
2016-09-04T13:29:40.314Z,20896
2016-09-04T13:30:41.026Z,20416
2016-09-04T13:31:40.319Z,20064
2016-09-04T13:32:40.324Z,19168
2016-09-04T13:33:40.323Z,18304
2016-09-04T13:34:41.867Z,17504
2016-09-04T13:35:41.463Z,17120
2016-09-04T13:36:42.075Z,16768
2016-09-04T13:37:41.163Z,16448
2016-09-04T13:38:42.055Z,15572
2016-09-04T13:39:40.353Z,14800
2016-09-04T13:40:40.359Z,14520
2016-09-04T13:41:40.377Z,14800